Time;durP1;ratioP1;P1;durP2;ratioP2;P2;SDS_P1;SDS_P2;PMS_P1;PMS_P2;Temp;Humidity;BMP_temperature;BMP_pressure;BME280_temperature;BME280_humidity;BME280_pressure;Samples;Min_cycle;Max_cycle;Signal;HPM_P1;HPM_P2
2024/01/07 00:01:58;;;;;;;16.30;11.30;;;0.50;99.90;;;;;;4874336;29;20391;-94
2024/01/07 00:04:24;;;;;;;18.70;14.98;;;0.40;99.90;;;;;;4860640;29;20041;-94
2024/01/07 00:06:50;;;;;;;19.63;15.52;;;0.40;99.90;;;;;;4860261;29;20395;-93
2024/01/07 00:09:18;;;;;;;14.82;12.88;;;0.40;99.90;;;;;;4860436;29;20049;-93
2024/01/07 00:11:44;;;;;;;16.95;11.65;;;0.40;99.90;;;;;;4847614;29;20166;-93
2024/01/07 00:14:09;;;;;;;18.90;14.95;;;0.40;99.90;;;;;;4869477;29;20057;-93
2024/01/07 00:16:35;;;;;;;16.52;12.18;;;;;;;;;;4868755;29;20220;-93
2024/01/07 00:19:01;;;;;;;13.73;12.18;;;0.20;99.90;;;;;;4864730;29;20045;-92
2024/01/07 00:21:27;;;;;;;15.88;11.48;;;0.50;99.90;;;;;;4859976;29;20048;-92
2024/01/07 00:23:53;;;;;;;22.40;17.75;;;0.30;99.90;;;;;;4860438;29;20491;-93
2024/01/07 00:26:18;;;;;;;20.30;16.00;;;0.30;99.90;;;;;;4860058;29;20048;-93
2024/01/07 00:28:44;;;;;;;20.05;16.45;;;0.40;99.90;;;;;;4858854;29;20049;-93
2024/01/07 00:31:12;;;;;;;21.23;16.52;;;0.40;99.90;;;;;;4861002;29;20478;-94
2024/01/07 00:33:37;;;;;;;22.85;17.63;;;0.40;99.90;;;;;;4860975;29;20037;-93
2024/01/07 00:36:04;;;;;;;18.98;15.57;;;0.40;99.90;;;;;;4866882;29;20426;-93
2024/01/07 00:38:30;;;;;;;17.92;14.18;;;0.40;99.90;;;;;;4848729;29;20029;-91
2024/01/07 00:40:56;;;;;;;14.55;9.02;;;0.40;99.90;;;;;;4863740;29;20101;-89
2024/01/07 00:43:21;;;;;;;16.20;12.43;;;0.40;99.90;;;;;;4854409;29;20487;-93
2024/01/07 00:45:47;;;;;;;14.60;12.20;;;0.40;99.90;;;;;;4850412;29;20048;-93
2024/01/07 00:48:14;;;;;;;13.13;9.32;;;0.40;99.90;;;;;;4850591;29;20041;-94
2024/01/07 00:50:40;;;;;;;15.07;11.60;;;0.40;99.90;;;;;;4859888;29;20044;-94
2024/01/07 00:53:05;;;;;;;16.58;12.25;;;0.40;99.90;;;;;;4868567;29;20042;-93
2024/01/07 00:55:31;;;;;;;17.75;13.43;;;0.40;99.90;;;;;;4875189;29;20048;-96
2024/01/07 00:57:56;;;;;;;18.55;14.73;;;0.40;99.90;;;;;;4855121;29;20093;-92
2024/01/07 01:00:22;;;;;;;14.00;10.48;;;0.40;99.90;;;;;;4850348;29;20049;-94
2024/01/07 01:02:48;;;;;;;17.55;13.70;;;0.40;99.90;;;;;;4866286;29;20087;-93
2024/01/07 01:05:13;;;;;;;17.58;14.43;;;0.40;99.90;;;;;;4854947;29;20627;-93
2024/01/07 01:07:39;;;;;;;12.77;9.40;;;0.40;99.90;;;;;;4866673;29;20043;-92
2024/01/07 01:10:05;;;;;;;14.90;11.52;;;0.40;99.90;;;;;;4872686;29;20036;-94
2024/01/07 01:12:31;;;;;;;15.75;13.98;;;0.40;99.90;;;;;;4864061;29;20048;-94
2024/01/07 01:14:57;;;;;;;16.40;11.88;;;0.40;99.90;;;;;;4846493;29;20127;-93
2024/01/07 01:17:22;;;;;;;13.77;11.77;;;0.30;99.90;;;;;;4847293;29;20128;-93
2024/01/07 01:19:48;;;;;;;14.93;13.15;;;0.40;99.90;;;;;;4850507;29;20037;-93
2024/01/07 01:22:13;;;;;;;14.07;11.35;;;0.40;99.90;;;;;;4842236;29;20142;-94
2024/01/07 01:24:39;;;;;;;12.68;10.20;;;0.40;99.90;;;;;;4866077;29;20049;-93
2024/01/07 01:27:05;;;;;;;15.02;11.63;;;0.30;99.90;;;;;;4847855;29;20084;-93
2024/01/07 01:29:30;;;;;;;15.77;11.75;;;0.40;99.90;;;;;;4858069;29;20044;-93
2024/01/07 01:31:57;;;;;;;16.60;10.15;;;0.30;99.90;;;;;;4865323;29;20064;-92
2024/01/07 01:34:22;;;;;;;13.85;12.20;;;0.30;99.90;;;;;;4863793;29;20048;-93
2024/01/07 01:36:48;;;;;;;15.02;11.25;;;0.30;99.90;;;;;;4852877;29;20037;-93
2024/01/07 01:39:13;;;;;;;13.52;11.13;;;0.30;99.90;;;;;;4853146;29;20201;-93
2024/01/07 01:41:40;;;;;;;12.82;10.30;;;;;;;;;;4870064;29;20072;-93
2024/01/07 01:44:06;;;;;;;13.25;9.55;;;0.30;99.90;;;;;;4852990;29;20049;-93
2024/01/07 01:46:31;;;;;;;12.13;8.70;;;0.30;99.90;;;;;;4859559;29;20048;-93
2024/01/07 01:48:58;;;;;;;13.48;11.07;;;0.30;99.90;;;;;;4863245;29;20639;-93
2024/01/07 01:51:25;;;;;;;11.90;9.07;;;0.30;99.90;;;;;;4862671;29;20040;-93
2024/01/07 01:53:51;;;;;;;10.98;8.77;;;0.30;99.90;;;;;;4858537;29;20045;-93
2024/01/07 01:56:20;;;;;;;14.00;10.30;;;0.30;99.90;;;;;;4844682;29;20041;-92
2024/01/07 01:58:47;;;;;;;9.40;8.07;;;0.30;99.90;;;;;;4846994;29;20163;-92
2024/01/07 02:01:13;;;;;;;12.68;7.25;;;0.30;99.90;;;;;;4853762;29;20041;-93
2024/01/07 02:03:39;;;;;;;10.80;8.43;;;0.30;99.90;;;;;;4848805;29;20041;-92
2024/01/07 02:06:05;;;;;;;12.15;9.68;;;0.30;99.90;;;;;;4851229;29;20060;-92
2024/01/07 02:08:32;;;;;;;10.10;7.25;;;0.30;99.90;;;;;;4848122;29;20048;-93
2024/01/07 02:10:57;;;;;;;10.80;9.10;;;0.30;99.90;;;;;;4849149;29;20041;-92
2024/01/07 02:13:23;;;;;;;11.65;8.95;;;0.30;99.90;;;;;;4862177;29;20045;-93
2024/01/07 02:15:48;;;;;;;14.57;10.85;;;0.30;99.90;;;;;;4844772;29;20053;-92
2024/01/07 02:18:14;;;;;;;14.75;12.25;;;0.30;99.90;;;;;;4857259;29;20053;-93
2024/01/07 02:20:40;;;;;;;11.23;9.32;;;0.30;99.90;;;;;;4869360;29;20036;-92
2024/01/07 02:23:06;;;;;;;14.18;11.35;;;0.30;99.90;;;;;;4863465;29;20049;-92
2024/01/07 02:25:38;;;;;;;11.85;6.72;;;0.30;99.90;;;;;;4851110;29;20073;-91
2024/01/07 02:28:05;;;;;;;12.95;11.00;;;0.30;99.90;;;;;;4874654;29;20494;-92
2024/01/07 02:30:31;;;;;;;12.05;9.50;;;0.30;99.90;;;;;;4867067;29;20056;-92
2024/01/07 02:33:00;;;;;;;16.65;11.90;;;0.30;99.90;;;;;;4871886;29;20044;-92
2024/01/07 02:35:26;;;;;;;9.70;7.65;;;0.30;99.90;;;;;;4860524;29;20690;-93
2024/01/07 02:37:51;;;;;;;11.05;9.32;;;0.30;99.90;;;;;;4867268;29;20509;-92
2024/01/07 02:40:17;;;;;;;13.52;11.25;;;0.30;99.90;;;;;;4867231;29;20231;-93
2024/01/07 02:42:43;;;;;;;10.93;8.63;;;0.30;99.90;;;;;;4864810;29;20052;-93
2024/01/07 02:45:09;;;;;;;11.00;8.57;;;0.30;99.90;;;;;;4867880;29;20415;-92
2024/01/07 02:47:34;;;;;;;13.27;10.98;;;0.30;99.90;;;;;;4870103;29;20051;-93
2024/01/07 02:50:00;;;;;;;12.48;10.20;;;0.20;99.90;;;;;;4865944;29;20116;-92
2024/01/07 02:52:25;;;;;;;9.48;8.23;;;0.30;99.90;;;;;;4849181;29;20119;-93
2024/01/07 02:54:51;;;;;;;13.63;11.13;;;0.30;99.90;;;;;;4867672;29;20508;-93
2024/01/07 02:57:17;;;;;;;11.50;9.32;;;0.30;99.90;;;;;;4860133;29;20052;-93
2024/01/07 02:59:42;;;;;;;12.45;9.18;;;0.30;99.90;;;;;;4853405;29;20041;-93
2024/01/07 03:02:08;;;;;;;10.88;9.20;;;0.30;99.90;;;;;;4874371;29;20079;-92
2024/01/07 03:04:33;;;;;;;12.15;7.95;;;0.30;99.90;;;;;;4846084;29;20044;-92
2024/01/07 03:06:59;;;;;;;9.63;7.03;;;0.30;99.90;;;;;;4845738;29;20037;-93
2024/01/07 03:09:25;;;;;;;12.00;9.57;;;0.30;99.90;;;;;;4851698;29;20053;-92
2024/01/07 03:11:50;;;;;;;10.07;7.43;;;0.30;99.90;;;;;;4853592;29;20036;-92
2024/01/07 03:14:20;;;;;;;10.63;9.30;;;0.30;99.90;;;;;;4862728;29;20121;-92
2024/01/07 03:16:45;;;;;;;11.40;9.25;;;0.30;99.90;;;;;;4846268;29;20447;-92
2024/01/07 03:19:11;;;;;;;10.82;8.73;;;0.20;99.90;;;;;;4855159;29;20040;-93
2024/01/07 03:21:37;;;;;;;13.95;10.25;;;0.30;99.90;;;;;;4867434;29;20405;-93
2024/01/07 03:24:02;;;;;;;10.55;7.82;;;0.20;99.90;;;;;;4859824;29;20049;-93
2024/01/07 03:26:32;;;;;;;12.35;9.75;;;0.20;99.90;;;;;;4848434;29;20041;-93
2024/01/07 03:28:59;;;;;;;12.63;8.63;;;0.20;99.90;;;;;;4860741;29;20120;-93
2024/01/07 03:31:27;;;;;;;8.38;6.53;;;;;;;;;;4863598;29;20041;-93
2024/01/07 03:33:52;;;;;;;9.87;8.73;;;0.20;99.90;;;;;;4851992;29;20041;-92
2024/01/07 03:36:18;;;;;;;12.65;11.05;;;0.30;99.90;;;;;;4866562;29;20042;-93
2024/01/07 03:38:43;;;;;;;13.48;8.18;;;0.30;99.90;;;;;;4855985;29;20044;-94
2024/01/07 03:41:15;;;;;;;11.50;10.30;;;0.20;99.90;;;;;;4867174;29;20047;-93
2024/01/07 03:43:40;;;;;;;9.63;6.88;;;0.30;99.90;;;;;;4852494;29;20040;-93
2024/01/07 03:46:06;;;;;;;10.13;9.05;;;0.20;99.90;;;;;;4864749;29;20045;-93
2024/01/07 03:48:32;;;;;;;10.38;8.68;;;0.20;99.90;;;;;;4862381;29;20109;-93
2024/01/07 03:50:58;;;;;;;13.85;11.68;;;0.20;99.90;;;;;;4845163;29;20041;-92
2024/01/07 03:53:23;;;;;;;11.13;8.90;;;0.20;99.90;;;;;;4853325;29;20041;-93
2024/01/07 03:55:49;;;;;;;11.65;10.32;;;0.20;99.90;;;;;;4854962;29;20040;-93
2024/01/07 03:58:14;;;;;;;13.07;8.93;;;0.20;99.90;;;;;;4866584;29;20041;-93
2024/01/07 04:00:40;;;;;;;12.50;10.43;;;0.20;99.90;;;;;;4854725;29;20037;-93
2024/01/07 04:03:06;;;;;;;8.52;6.20;;;0.20;99.90;;;;;;4847006;29;20037;-93
2024/01/07 04:05:33;;;;;;;13.10;10.63;;;0.20;99.90;;;;;;4853468;29;20077;-92
2024/01/07 04:08:01;;;;;;;12.70;10.60;;;0.20;99.90;;;;;;4847902;29;20104;-93
2024/01/07 04:10:27;;;;;;;12.02;10.02;;;0.20;99.90;;;;;;4850602;29;20107;-93
2024/01/07 04:12:53;;;;;;;14.30;10.05;;;0.20;99.90;;;;;;4863332;29;20070;-93
2024/01/07 04:15:18;;;;;;;13.90;10.75;;;0.20;99.90;;;;;;4860223;29;20080;-93
2024/01/07 04:17:44;;;;;;;12.65;10.98;;;0.20;99.90;;;;;;4865622;29;20045;-93
2024/01/07 04:20:13;;;;;;;10.52;8.15;;;0.20;99.90;;;;;;4845553;29;20486;-94
2024/01/07 04:22:38;;;;;;;10.18;8.50;;;0.20;99.90;;;;;;4866194;29;20091;-94
2024/01/07 04:25:08;;;;;;;10.93;9.25;;;0.10;99.90;;;;;;4866843;29;20085;-94
2024/01/07 04:27:37;;;;;;;11.48;9.50;;;0.10;99.90;;;;;;4858707;29;20036;-94
2024/01/07 04:30:04;;;;;;;7.82;7.00;;;0.10;99.90;;;;;;4847585;29;20056;-94
2024/01/07 04:32:30;;;;;;;9.23;8.18;;;0.10;99.90;;;;;;4870021;29;20052;-94
2024/01/07 04:34:57;;;;;;;12.25;10.95;;;0.10;99.90;;;;;;4851839;29;20060;-93
2024/01/07 04:37:23;;;;;;;12.75;11.30;;;0.10;99.90;;;;;;4866728;29;20037;-94
2024/01/07 04:39:49;;;;;;;12.80;8.85;;;0.00;99.90;;;;;;4850641;29;20190;-94
2024/01/07 04:42:16;;;;;;;9.05;7.20;;;0.00;99.90;;;;;;4847766;29;20107;-95
2024/01/07 04:44:42;;;;;;;9.63;7.53;;;0.00;99.90;;;;;;4842653;29;20489;-94
2024/01/07 04:47:30;;;;;;;14.05;10.50;;;0.00;99.90;;;;;;4853589;29;20051;-94
2024/01/07 04:49:57;;;;;;;11.27;9.40;;;0.10;99.90;;;;;;4858913;29;20188;-94
2024/01/07 04:52:24;;;;;;;12.10;7.80;;;0.00;99.90;;;;;;4853885;29;20029;-94
2024/01/07 04:54:53;;;;;;;13.95;10.35;;;0.00;99.90;;;;;;4862734;29;20501;-94
2024/01/07 04:57:19;;;;;;;11.27;8.95;;;0.00;99.90;;;;;;4848779;29;20047;-94
2024/01/07 04:59:45;;;;;;;11.15;8.60;;;-0.10;99.90;;;;;;4861698;29;20084;-95
2024/01/07 05:02:11;;;;;;;9.13;7.07;;;-0.10;99.90;;;;;;4864916;29;20700;-94
2024/01/07 05:04:37;;;;;;;7.55;6.55;;;-0.10;99.90;;;;;;4855213;29;20049;-95
2024/01/07 05:07:03;;;;;;;11.38;7.72;;;-0.10;99.90;;;;;;4843603;29;20049;-94
2024/01/07 05:09:29;;;;;;;10.18;7.63;;;-0.20;99.90;;;;;;4866802;29;20066;-96
2024/01/07 05:11:55;;;;;;;9.25;8.00;;;-0.30;99.90;;;;;;4848730;29;20041;-96
2024/01/07 05:14:22;;;;;;;7.13;5.43;;;-0.20;99.90;;;;;;4844463;29;20459;-96
2024/01/07 05:16:48;;;;;;;9.63;7.50;;;-0.20;99.90;;;;;;4872043;29;20068;-96
2024/01/07 05:19:14;;;;;;;8.40;5.68;;;-0.20;99.90;;;;;;4863275;29;20116;-93
2024/01/07 05:21:39;;;;;;;8.65;7.07;;;-0.20;99.90;;;;;;4845851;29;20100;-95
2024/01/07 05:24:05;;;;;;;9.70;6.57;;;-0.20;99.90;;;;;;4869588;29;20067;-94
2024/01/07 05:26:37;;;;;;;11.27;7.75;;;-0.20;99.90;;;;;;4851001;29;20088;-93
2024/01/07 05:29:03;;;;;;;7.40;5.70;;;-0.20;99.90;;;;;;4860871;29;20037;-95
2024/01/07 05:31:28;;;;;;;6.78;5.80;;;-0.30;99.90;;;;;;4866716;29;20064;-95
2024/01/07 05:33:54;;;;;;;12.23;9.50;;;-0.30;99.90;;;;;;4862741;29;20116;-93
2024/01/07 05:36:20;;;;;;;9.43;7.72;;;-0.30;99.90;;;;;;4850683;29;20074;-94
2024/01/07 05:38:45;;;;;;;8.77;7.28;;;-0.30;99.90;;;;;;4866598;29;20520;-95
2024/01/07 05:41:11;;;;;;;10.30;7.55;;;-0.30;99.90;;;;;;4859989;29;20064;-95
2024/01/07 05:43:37;;;;;;;9.68;6.20;;;-0.30;99.90;;;;;;4844679;29;20148;-95
2024/01/07 05:46:03;;;;;;;7.00;6.30;;;-0.40;99.90;;;;;;4849498;29;20089;-95
2024/01/07 05:48:29;;;;;;;11.25;7.30;;;-0.30;99.90;;;;;;4849877;29;20068;-94
2024/01/07 05:50:54;;;;;;;8.13;6.18;;;-0.30;99.90;;;;;;4845175;29;20372;-96
2024/01/07 05:53:20;;;;;;;6.22;5.45;;;-0.30;99.90;;;;;;4848740;29;20052;-95
2024/01/07 05:55:46;;;;;;;9.68;7.78;;;-0.30;99.90;;;;;;4866832;29;20045;-95
2024/01/07 05:58:11;;;;;;;5.45;4.95;;;-0.20;99.90;;;;;;4854496;29;20045;-96
2024/01/07 06:00:38;;;;;;;7.70;6.63;;;-0.30;99.90;;;;;;4870541;29;20482;-95
2024/01/07 06:03:04;;;;;;;10.60;7.13;;;-0.30;99.90;;;;;;4871215;29;20534;-94
2024/01/07 06:05:30;;;;;;;9.38;6.28;;;-0.30;99.90;;;;;;4866399;29;20049;-95
2024/01/07 06:07:56;;;;;;;10.05;8.15;;;-0.30;99.90;;;;;;4854564;29;20036;-95
2024/01/07 06:10:22;;;;;;;9.55;7.63;;;-0.20;99.90;;;;;;4861224;29;20478;-95
2024/01/07 06:12:47;;;;;;;10.00;7.25;;;-0.20;99.90;;;;;;4864276;29;20043;-94
2024/01/07 06:15:13;;;;;;;8.35;6.32;;;-0.10;99.90;;;;;;4849861;29;20045;-96
2024/01/07 06:17:39;;;;;;;8.07;5.80;;;-0.30;99.90;;;;;;4868611;29;20136;-95
2024/01/07 06:20:05;;;;;;;10.00;7.22;;;-0.30;99.90;;;;;;4862031;29;20045;-95
2024/01/07 06:22:31;;;;;;;7.07;4.93;;;-0.20;99.90;;;;;;4849568;29;20048;-95
2024/01/07 06:24:57;;;;;;;7.68;5.32;;;-0.20;99.90;;;;;;4853119;29;20040;-96
2024/01/07 06:27:22;;;;;;;8.50;5.85;;;-0.20;99.90;;;;;;4861867;29;20109;-95
2024/01/07 06:29:50;;;;;;;6.53;5.03;;;-0.20;99.90;;;;;;4862420;29;20056;-95
2024/01/07 06:32:16;;;;;;;6.97;5.13;;;-0.30;99.90;;;;;;4850965;29;20032;-94
2024/01/07 06:34:41;;;;;;;6.68;5.30;;;-0.30;99.90;;;;;;4862445;29;20048;-95
2024/01/07 06:37:10;;;;;;;7.07;4.53;;;-0.20;99.90;;;;;;4849782;29;20041;-95
2024/01/07 06:39:35;;;;;;;6.22;5.45;;;-0.30;99.90;;;;;;4870946;29;20041;-94
2024/01/07 06:42:01;;;;;;;5.00;3.92;;;-0.30;99.90;;;;;;4869861;29;20033;-94
2024/01/07 06:44:27;;;;;;;3.42;3.08;;;-0.20;99.90;;;;;;4865493;29;20041;-96
2024/01/07 06:46:52;;;;;;;4.07;2.90;;;-0.20;99.90;;;;;;4867077;29;20044;-95
2024/01/07 06:49:18;;;;;;;4.20;3.40;;;-0.30;99.90;;;;;;4847744;29;20093;-94
2024/01/07 06:51:43;;;;;;;6.25;3.72;;;-0.20;99.90;;;;;;4853548;29;20064;-96
2024/01/07 06:54:09;;;;;;;3.70;2.97;;;-0.30;99.90;;;;;;4876395;29;20410;-95
2024/01/07 06:56:35;;;;;;;5.53;3.40;;;-0.20;99.90;;;;;;4861761;29;20442;-94
2024/01/07 06:59:00;;;;;;;5.78;3.78;;;-0.20;99.90;;;;;;4862961;29;20033;-94
2024/01/07 07:01:26;;;;;;;3.05;2.58;;;-0.20;99.90;;;;;;4853869;29;20037;-94
2024/01/07 07:03:52;;;;;;;5.05;3.25;;;-0.20;99.90;;;;;;4857971;29;20082;-94
2024/01/07 07:06:17;;;;;;;5.38;3.03;;;-0.20;99.90;;;;;;4868319;29;20301;-95
2024/01/07 07:08:43;;;;;;;5.13;3.33;;;-0.20;99.90;;;;;;4845113;29;20044;-96
2024/01/07 07:11:09;;;;;;;4.80;2.95;;;-0.20;99.90;;;;;;4849525;29;20041;-96
2024/01/07 07:13:35;;;;;;;3.78;2.70;;;-0.30;99.90;;;;;;4852461;29;20047;-96
2024/01/07 07:16:01;;;;;;;4.00;2.92;;;-0.20;99.90;;;;;;4855510;29;20053;-96
2024/01/07 07:18:26;;;;;;;4.90;3.20;;;-0.20;99.90;;;;;;4863890;29;20033;-96
2024/01/07 07:20:52;;;;;;;3.40;2.53;;;-0.10;99.90;;;;;;4853415;29;20128;-96
2024/01/07 07:23:18;;;;;;;3.15;2.72;;;-0.10;99.90;;;;;;4854718;29;20154;-96
2024/01/07 07:25:44;;;;;;;4.55;2.92;;;0.00;99.90;;;;;;4845037;29;20115;-95
2024/01/07 07:28:10;;;;;;;6.53;3.50;;;-0.20;99.90;;;;;;4874841;29;20048;-96
2024/01/07 07:30:38;;;;;;;5.53;3.15;;;-0.30;99.90;;;;;;4864386;29;20442;-95
2024/01/07 07:33:04;;;;;;;3.85;3.00;;;-0.30;99.90;;;;;;4865777;29;20063;-95
2024/01/07 07:35:30;;;;;;;4.20;2.10;;;;;;;;;;4869560;29;19928;-95
2024/01/07 07:37:55;;;;;;;5.55;2.67;;;-0.20;99.90;;;;;;4854368;29;20463;-95
2024/01/07 07:40:21;;;;;;;5.78;3.20;;;-0.20;99.90;;;;;;4868236;29;20048;-95
2024/01/07 07:42:47;;;;;;;4.38;2.70;;;-0.20;99.90;;;;;;4864770;29;20076;-95
2024/01/07 07:45:12;;;;;;;4.45;2.67;;;-0.20;99.90;;;;;;4862704;29;20044;-96
2024/01/07 07:47:44;;;;;;;3.15;2.45;;;-0.20;99.90;;;;;;4848239;29;20107;-95
2024/01/07 07:50:10;;;;;;;3.70;2.13;;;-0.20;99.90;;;;;;4849585;29;20040;-95
2024/01/07 07:52:36;;;;;;;2.95;2.70;;;-0.20;99.90;;;;;;4849911;29;20451;-96
2024/01/07 07:55:02;;;;;;;1.90;1.70;;;-0.20;99.90;;;;;;4859106;29;20101;-94
2024/01/07 07:57:28;;;;;;;5.10;3.00;;;-0.30;99.90;;;;;;4856708;29;20037;-96
2024/01/07 07:59:57;;;;;;;3.17;1.98;;;;;;;;;;4873106;29;20045;-96
2024/01/07 08:02:23;;;;;;;6.20;2.55;;;-0.30;99.90;;;;;;4850241;29;20047;-95
2024/01/07 08:04:48;;;;;;;5.07;3.22;;;0.00;99.90;;;;;;4866371;29;20131;-95
2024/01/07 08:07:14;;;;;;;2.08;1.75;;;-0.70;99.90;;;;;;4863821;29;20041;-94
2024/01/07 08:09:40;;;;;;;13.38;4.15;;;0.30;99.90;;;;;;4853909;29;20037;-95
2024/01/07 08:12:06;;;;;;;6.47;2.85;;;0.50;99.90;;;;;;4848266;29;20053;-95
2024/01/07 08:14:32;;;;;;;3.85;2.55;;;-0.30;99.90;;;;;;4874187;29;20044;-96
2024/01/07 08:16:58;;;;;;;2.95;2.55;;;-0.70;99.90;;;;;;4867283;29;20465;-94
2024/01/07 08:19:24;;;;;;;2.78;2.10;;;-0.50;99.90;;;;;;4874139;29;20047;-93
2024/01/07 08:21:52;;;;;;;3.10;2.50;;;;;;;;;;4874687;29;20405;-94
2024/01/07 08:24:18;;;;;;;3.28;1.98;;;-0.50;99.90;;;;;;4859794;29;20346;-94
2024/01/07 08:26:47;;;;;;;2.58;1.70;;;-0.30;99.90;;;;;;4871608;29;20076;-96
2024/01/07 08:29:13;;;;;;;4.15;1.98;;;-0.20;99.90;;;;;;4863299;29;20037;-96
2024/01/07 08:31:42;;;;;;;5.03;2.63;;;0.00;99.90;;;;;;4874510;29;20044;-93
2024/01/07 08:34:07;;;;;;;1.98;1.80;;;-0.20;99.90;;;;;;4876851;29;20051;-95
2024/01/07 08:36:33;;;;;;;4.50;2.20;;;;;;;;;;4862676;29;20044;-95
2024/01/07 08:39:09;;;;;;;2.67;2.15;;;;;;;;;;4864977;29;20036;-96
2024/01/07 08:41:35;;;;;;;3.13;2.30;;;;;;;;;;4857341;29;20033;-93
2024/01/07 08:44:01;;;;;;;2.97;1.90;;;;;;;;;;4858330;29;20040;-93
2024/01/07 08:46:27;;;;;;;1.73;1.63;;;;;;;;;;4858636;29;20043;-96
2024/01/07 08:48:53;;;;;;;4.22;1.52;;;;;;;;;;4861602;23;20502;-43
2024/01/07 08:51:19;;;;;;;2.00;1.55;;;;;;;;;;4856950;29;20446;-43
2024/01/07 08:53:45;;;;;;;1.98;1.73;;;;;;;;;;4857357;29;20126;-42
2024/01/07 08:56:12;;;;;;;3.67;2.00;;;;;;;;;;4860304;29;20108;-42
2024/01/07 08:58:40;;;;;;;2.67;1.90;;;;;;;;;;4859934;29;20049;-42
2024/01/07 09:01:06;;;;;;;2.00;1.83;;;;;;;;;;4859615;29;20049;-43
2024/01/07 09:03:32;;;;;;;2.03;1.77;;;;;;;;;;4887014;29;20561;-42
2024/01/07 09:05:58;;;;;;;3.13;1.88;;;;;;;;;;4879760;29;20041;-42
2024/01/07 09:08:24;;;;;;;3.10;1.40;;;;;;;;;;4884855;29;20484;-41
2024/01/07 09:10:50;;;;;;;2.45;1.58;;;;;;;;;;4876960;29;20124;-42
2024/01/07 09:13:16;;;;;;;1.75;1.58;;;;;;;;;;4864924;29;20366;-43
2024/01/07 09:15:42;;;;;;;3.42;2.05;;;;;;;;;;4880305;29;20399;-43
2024/01/07 09:18:08;;;;;;;2.60;1.77;;;;;;;;;;4884759;29;20131;-42
2024/01/07 09:20:34;;;;;;;1.92;1.60;;;;;;;;;;4883477;29;20055;-43
2024/01/07 09:23:00;;;;;;;2.10;1.20;;;;;;;;;;4882939;29;20044;-43
2024/01/07 09:25:26;;;;;;;1.92;1.48;;;;;;;;;;4876706;29;20094;-42
2024/01/07 09:27:53;;;;;;;1.75;1.55;;;;;;;;;;4868924;29;20041;-42
2024/01/07 09:30:19;;;;;;;3.58;1.90;;;;;;;;;;4875552;29;20053;-43
2024/01/07 09:32:45;;;;;;;2.30;1.77;;;;;;;;;;4881626;29;20045;-42
2024/01/07 09:35:11;;;;;;;2.75;1.88;;;;;;;;;;4878838;29;20072;-42
2024/01/07 09:37:37;;;;;;;2.38;1.88;;;;;;;;;;4880803;29;20399;-41
2024/01/07 09:40:06;;;;;;;4.82;1.95;;;;;;;;;;4877593;29;20037;-41
2024/01/07 09:42:32;;;;;;;3.08;2.08;;;;;;;;;;4882957;29;20048;-41
2024/01/07 09:45:00;;;;;;;2.22;1.65;;;;;;;;;;4876963;29;20052;-43
2024/01/07 09:47:26;;;;;;;;;;;;;;;;;;4878429;29;20037;-42
2024/01/07 09:49:52;;;;;;;2.55;1.70;;;;;;;;;;4875688;29;20563;-42
2024/01/07 09:52:21;;;;;;;4.00;2.22;;;;;;;;;;4877992;29;20153;-42
2024/01/07 09:54:49;;;;;;;2.35;1.88;;;;;;;;;;4877840;29;20506;-43
2024/01/07 09:57:15;;;;;;;3.97;1.67;;;;;;;;;;4880003;29;20052;-43
2024/01/07 09:59:41;;;;;;;3.13;1.90;;;;;;;;;;4879663;29;20041;-42
2024/01/07 10:02:09;;;;;;;3.17;2.00;;;;;;;;;;4881169;29;20429;-42
2024/01/07 10:04:35;;;;;;;1.95;1.75;;;;;;;;;;4881203;29;20132;-42
2024/01/07 10:07:01;;;;;;;3.25;1.80;;;;;;;;;;4870031;29;20045;-42
2024/01/07 10:09:30;;;;;;;2.85;1.95;;;;;;;;;;4862507;29;20042;-42
2024/01/07 10:11:57;;;;;;;2.50;1.40;;;;;;;;;;4861527;29;20045;-43
2024/01/07 10:14:24;;;;;;;3.53;1.90;;;;;;;;;;4853232;29;20049;-45
2024/01/07 10:16:50;;;;;;;3.30;1.85;;;;;;;;;;4880777;29;20045;-43
2024/01/07 10:19:23;;;;;;;2.90;1.23;;;;;;;;;;4881030;29;20127;-43
2024/01/07 10:22:05;;;;;;;2.45;1.77;;;;;;;;;;4881555;29;20407;-44
2024/01/07 10:24:38;;;;;;;2.83;1.30;;;;;;;;;;4879444;29;20128;-42
2024/01/07 10:27:04;;;;;;;1.30;1.10;;;;;;;;;;4886238;29;20048;-43
2024/01/07 10:29:30;;;;;;;3.00;1.67;;;;;;;;;;4899991;29;20425;-43
2024/01/07 10:31:58;;;;;;;3.83;1.40;;;;;;;;;;4881080;29;20127;-42
2024/01/07 10:34:24;;;;;;;2.70;1.65;;;;;;;;;;4879016;29;20041;-43
2024/01/07 10:36:56;;;;;;;2.40;1.70;;;;;;;;;;4865993;29;20041;-43
2024/01/07 10:39:22;;;;;;;2.17;1.33;;;;;;;;;;4880746;29;20080;-42
2024/01/07 10:41:48;;;;;;;1.30;1.20;;;;;;;;;;4880340;29;20406;-42
2024/01/07 10:44:14;;;;;;;2.30;1.50;;;;;;;;;;4880565;29;20101;-43
2024/01/07 10:46:40;;;;;;;2.90;1.63;;;;;;;;;;4878850;29;20049;-43
2024/01/07 10:49:16;;;;;;;2.42;1.42;;;;;;;;;;4858226;29;20135;-42
2024/01/07 10:51:43;;;;;;;1.63;1.27;;;;;;;;;;4880494;29;20053;-42
2024/01/07 10:54:11;;;;;;;3.63;1.60;;;;;;;;;;4880219;29;20511;-42
2024/01/07 10:56:45;;;;;;;1.63;0.95;;;;;;;;;;4879073;29;20093;-43
2024/01/07 10:59:11;;;;;;;2.85;1.98;;;;;;;;;;4861771;29;20052;-43
2024/01/07 11:01:39;;;;;;;2.17;1.52;;;;;;;;;;4829563;29;20045;-44
2024/01/07 11:04:08;;;;;;;3.60;1.40;;;;;;;;;;4861558;29;20072;-42
2024/01/07 11:06:42;;;;;;;2.13;1.35;;;;;;;;;;4876429;29;20453;-41
2024/01/07 11:09:17;;;;;;;2.85;1.45;;;;;;;;;;4877216;29;20053;-42
2024/01/07 11:11:43;;;;;;;2.13;1.17;;;;;;;;;;4865360;29;20041;-42
2024/01/07 11:14:28;;;;;;;1.40;1.10;;;;;;;;;;4861280;29;20129;-41
2024/01/07 11:16:54;;;;;;;2.70;1.20;;;;;;;;;;4862402;29;20057;-43
2024/01/07 11:19:20;;;;;;;2.05;1.33;;;;;;;;;;4880089;29;20049;-41
2024/01/07 11:21:46;;;;;;;2.00;1.23;;;;;;;;;;4879353;29;20045;-42
2024/01/07 11:24:31;;;;;;;2.15;1.45;;;;;;;;;;4879588;29;20052;-42
2024/01/07 11:27:02;;;;;;;1.98;1.30;;;;;;;;;;4880405;29;20097;-44
2024/01/07 11:29:28;;;;;;;3.00;1.60;;;;;;;;;;4880628;29;20113;-42
2024/01/07 11:31:54;;;;;;;2.95;1.17;;;;;;;;;;4880513;29;20053;-44
2024/01/07 11:34:40;;;;;;;1.73;1.20;;;;;;;;;;4879957;29;20132;-43
2024/01/07 11:37:08;;;;;;;1.45;1.08;;;;;;;;;;4879968;29;20049;-42
2024/01/07 11:39:35;;;;;;;2.78;1.27;;;;;;;;;;4875177;29;20048;-43
2024/01/07 11:42:01;;;;;;;2.43;1.23;;;;;;;;;;4879968;29;20064;-42
2024/01/07 11:44:27;;;;;;;2.50;1.13;;;;;;;;;;4880153;29;20053;-45
2024/01/07 11:46:53;;;;;;;1.63;1.30;;;;;;;;;;4879799;29;20049;-43
2024/01/07 11:49:19;;;;;;;3.67;1.20;;;;;;;;;;4879883;29;20057;-42
2024/01/07 11:51:46;;;;;;;1.98;1.00;;;;;;;;;;4879301;29;20172;-42
2024/01/07 11:54:12;;;;;;;2.13;1.77;;;;;;;;;;4879243;29;20051;-44
2024/01/07 11:56:38;;;;;;;2.03;1.20;;;;;;;;;;4879496;29;20052;-43
2024/01/07 11:59:06;;;;;;;5.47;1.83;;;;;;;;;;4879709;29;20459;-41
2024/01/07 12:01:32;;;;;;;2.58;2.03;;;;;;;;;;4879632;29;20056;-43
2024/01/07 12:03:58;;;;;;;2.22;1.63;;;;;;;;;;4879395;29;20056;-43
2024/01/07 12:06:24;;;;;;;2.58;1.52;;;1.00;99.90;;;;;;4878868;29;20041;-43
2024/01/07 12:08:50;;;;;;;2.35;1.00;;;1.10;99.90;;;;;;4878515;29;20044;-42
2024/01/07 12:11:16;;;;;;;1.60;1.25;;;1.10;99.90;;;;;;4880566;29;20048;-42
2024/01/07 12:13:42;;;;;;;2.20;0.95;;;0.90;99.90;;;;;;4879495;29;20080;-43
2024/01/07 12:16:09;;;;;;;1.85;1.30;;;1.20;99.90;;;;;;4878073;29;20047;-43
2024/01/07 12:18:42;;;;;;;2.83;1.20;;;1.20;99.90;;;;;;4882559;29;20091;-43
2024/01/07 12:21:07;;;;;;;3.88;1.63;;;1.20;99.90;;;;;;4898085;29;20052;-43
2024/01/07 12:23:37;;;;;;;3.78;1.63;;;1.20;99.90;;;;;;4898136;29;20053;-43
2024/01/07 12:26:11;;;;;;;1.25;1.08;;;1.40;99.90;;;;;;4897806;29;20120;-43
2024/01/07 12:28:37;;;;;;;1.65;1.17;;;1.20;99.90;;;;;;4875518;29;20406;-43
2024/01/07 12:31:04;;;;;;;3.00;1.40;;;1.50;99.90;;;;;;4865689;29;20391;-43
2024/01/07 12:33:31;;;;;;;1.77;1.42;;;1.60;99.90;;;;;;4882076;29;20045;-44
2024/01/07 12:35:57;;;;;;;1.63;1.38;;;1.50;99.90;;;;;;4876334;29;20053;-43
2024/01/07 12:38:27;;;;;;;2.85;1.55;;;1.50;99.90;;;;;;4880915;29;20119;-42
2024/01/07 12:40:53;;;;;;;2.22;1.83;;;1.80;99.90;;;;;;4891971;29;20056;-46
2024/01/07 12:43:20;;;;;;;2.75;1.58;;;1.60;99.90;;;;;;4851110;29;20137;-42
2024/01/07 12:45:48;;;;;;;2.13;1.52;;;1.90;99.90;;;;;;4878840;29;20081;-42
2024/01/07 12:48:14;;;;;;;2.03;1.77;;;1.80;99.90;;;;;;4878239;29;20515;-44
2024/01/07 12:50:40;;;;;;;3.22;1.60;;;1.70;99.90;;;;;;4879519;29;20053;-43
2024/01/07 12:53:05;;;;;;;3.53;2.20;;;1.60;99.90;;;;;;4877325;29;20384;-43
2024/01/07 12:55:32;;;;;;;1.65;1.48;;;1.40;99.90;;;;;;4878594;29;20045;-42
2024/01/07 12:58:01;;;;;;;3.10;1.85;;;1.50;99.90;;;;;;4878531;29;20133;-42
2024/01/07 13:00:28;;;;;;;2.90;1.77;;;1.50;99.90;;;;;;4878776;29;20072;-43
2024/01/07 13:02:56;;;;;;;1.50;1.17;;;1.70;99.90;;;;;;4878609;29;20112;-44
2024/01/07 13:05:23;;;;;;;2.60;1.65;;;1.60;99.90;;;;;;4875436;29;20045;-43
2024/01/07 13:07:50;;;;;;;4.20;2.08;;;1.50;99.90;;;;;;4856443;29;20128;-43
2024/01/07 13:10:15;;;;;;;2.97;1.70;;;1.80;99.90;;;;;;4877869;29;20092;-43
2024/01/07 13:12:43;;;;;;;1.77;1.55;;;1.50;99.90;;;;;;4860722;29;20049;-43